sensor_id;sensor_type;location;lat;lon;timestamp;temperature;humidity
19947;DHT22;10135;50.702;7.276;2023-05-10T05:01:08;16.80;69.80
19947;DHT22;10135;50.702;7.276;2023-05-10T05:03:10;16.80;69.50
19947;DHT22;10135;50.702;7.276;2023-05-10T05:05:12;16.80;69.60
19947;DHT22;10135;50.702;7.276;2023-05-10T05:07:12;16.80;69.60
19947;DHT22;10135;50.702;7.276;2023-05-10T05:09:13;16.90;69.60
19947;DHT22;10135;50.702;7.276;2023-05-10T05:11:14;16.90;69.60
19947;DHT22;10135;50.702;7.276;2023-05-10T05:13:14;16.90;69.70
19947;DHT22;10135;50.702;7.276;2023-05-10T05:15:15;16.90;69.70
19947;DHT22;10135;50.702;7.276;2023-05-10T05:17:16;16.90;69.70
19947;DHT22;10135;50.702;7.276;2023-05-10T05:19:17;17.00;69.80
19947;DHT22;10135;50.702;7.276;2023-05-10T05:21:19;17.00;69.80
19947;DHT22;10135;50.702;7.276;2023-05-10T05:23:20;17.00;69.80
19947;DHT22;10135;50.702;7.276;2023-05-10T05:25:21;17.00;69.80
19947;DHT22;10135;50.702;7.276;2023-05-10T05:27:21;17.00;69.80
19947;DHT22;10135;50.702;7.276;2023-05-10T05:29:24;17.00;69.80
19947;DHT22;10135;50.702;7.276;2023-05-10T05:31:25;17.00;69.80
19947;DHT22;10135;50.702;7.276;2023-05-10T05:33:25;17.10;69.90
19947;DHT22;10135;50.702;7.276;2023-05-10T05:35:26;17.10;69.90
19947;DHT22;10135;50.702;7.276;2023-05-10T05:37:27;17.10;69.90
19947;DHT22;10135;50.702;7.276;2023-05-10T05:39:27;17.10;69.90
19947;DHT22;10135;50.702;7.276;2023-05-10T05:41:28;17.10;69.90
19947;DHT22;10135;50.702;7.276;2023-05-10T05:43:28;17.10;69.90
19947;DHT22;10135;50.702;7.276;2023-05-10T05:45:29;17.10;69.90
19947;DHT22;10135;50.702;7.276;2023-05-10T05:47:30;17.20;70.00
19947;DHT22;10135;50.702;7.276;2023-05-10T05:49:30;17.20;70.00
19947;DHT22;10135;50.702;7.276;2023-05-10T05:51:31;17.20;70.00
19947;DHT22;10135;50.702;7.276;2023-05-10T05:53:32;17.20;70.00
19947;DHT22;10135;50.702;7.276;2023-05-10T05:55:33;17.20;70.00
19947;DHT22;10135;50.702;7.276;2023-05-10T05:57:34;17.20;70.00
19947;DHT22;10135;50.702;7.276;2023-05-10T05:59:34;17.30;70.10
19947;DHT22;10135;50.702;7.276;2023-05-10T06:01:35;17.30;70.20
19947;DHT22;10135;50.702;7.276;2023-05-10T06:03:36;17.30;70.10
19947;DHT22;10135;50.702;7.276;2023-05-10T06:05:36;17.30;70.20
19947;DHT22;10135;50.702;7.276;2023-05-10T06:07:37;17.40;70.20
19947;DHT22;10135;50.702;7.276;2023-05-10T06:09:38;17.40;70.20
19947;DHT22;10135;50.702;7.276;2023-05-10T06:11:38;17.40;70.20
19947;DHT22;10135;50.702;7.276;2023-05-10T06:13:39;17.40;70.10
19947;DHT22;10135;50.702;7.276;2023-05-10T06:15:40;17.40;70.10
19947;DHT22;10135;50.702;7.276;2023-05-10T06:17:40;17.40;70.00
19947;DHT22;10135;50.702;7.276;2023-05-10T06:19:41;17.50;70.10
19947;DHT22;10135;50.702;7.276;2023-05-10T06:21:42;17.50;70.00
19947;DHT22;10135;50.702;7.276;2023-05-10T06:23:43;17.50;70.00
19947;DHT22;10135;50.702;7.276;2023-05-10T06:25:44;17.50;70.00
19947;DHT22;10135;50.702;7.276;2023-05-10T06:27:44;17.50;70.00
19947;DHT22;10135;50.702;7.276;2023-05-10T06:29:45;17.50;70.00
19947;DHT22;10135;50.702;7.276;2023-05-10T06:31:46;17.50;70.00
19947;DHT22;10135;50.702;7.276;2023-05-10T06:33:46;17.60;70.10
19947;DHT22;10135;50.702;7.276;2023-05-10T06:35:47;17.60;70.00
19947;DHT22;10135;50.702;7.276;2023-05-10T06:37:48;17.60;70.10
19947;DHT22;10135;50.702;7.276;2023-05-10T06:39:49;17.60;70.00
19947;DHT22;10135;50.702;7.276;2023-05-10T06:41:50;17.60;70.00
19947;DHT22;10135;50.702;7.276;2023-05-10T06:43:50;17.70;70.10
19947;DHT22;10135;50.702;7.276;2023-05-10T06:45:51;17.70;70.00
19947;DHT22;10135;50.702;7.276;2023-05-10T06:47:52;17.70;70.00
19947;DHT22;10135;50.702;7.276;2023-05-10T06:49:53;17.80;70.10
19947;DHT22;10135;50.702;7.276;2023-05-10T06:51:55;17.80;70.10
19947;DHT22;10135;50.702;7.276;2023-05-10T06:53:56;17.80;70.10
19947;DHT22;10135;50.702;7.276;2023-05-10T06:55:57;17.90;70.10
19947;DHT22;10135;50.702;7.276;2023-05-10T06:57:57;17.90;69.90
19947;DHT22;10135;50.702;7.276;2023-05-10T06:59:58;17.90;69.80
19947;DHT22;10135;50.702;7.276;2023-05-10T07:01:59;18.00;69.70
19947;DHT22;10135;50.702;7.276;2023-05-10T07:04:00;18.00;69.70
19947;DHT22;10135;50.702;7.276;2023-05-10T07:06:04;18.00;69.70
19947;DHT22;10135;50.702;7.276;2023-05-10T07:08:05;18.00;69.70
19947;DHT22;10135;50.702;7.276;2023-05-10T07:10:06;18.00;69.60
19947;DHT22;10135;50.702;7.276;2023-05-10T07:12:07;18.00;69.50
19947;DHT22;10135;50.702;7.276;2023-05-10T07:14:08;18.00;69.50
19947;DHT22;10135;50.702;7.276;2023-05-10T07:16:08;18.00;70.30
19947;DHT22;10135;50.702;7.276;2023-05-10T07:18:09;18.00;69.50
19947;DHT22;10135;50.702;7.276;2023-05-10T07:20:10;17.90;69.50
19947;DHT22;10135;50.702;7.276;2023-05-10T07:22:11;17.90;69.40
19947;DHT22;10135;50.702;7.276;2023-05-10T07:24:12;17.90;69.50
19947;DHT22;10135;50.702;7.276;2023-05-10T07:26:13;17.90;69.50
19947;DHT22;10135;50.702;7.276;2023-05-10T07:28:15;17.90;69.60
19947;DHT22;10135;50.702;7.276;2023-05-10T07:30:16;17.90;69.60
19947;DHT22;10135;50.702;7.276;2023-05-10T07:32:17;17.90;69.60
19947;DHT22;10135;50.702;7.276;2023-05-10T07:34:17;17.90;69.70
19947;DHT22;10135;50.702;7.276;2023-05-10T07:36:18;17.90;69.70
19947;DHT22;10135;50.702;7.276;2023-05-10T07:38:19;17.90;69.60
19947;DHT22;10135;50.702;7.276;2023-05-10T07:40:19;17.90;69.60
19947;DHT22;10135;50.702;7.276;2023-05-10T07:42:20;17.90;69.60
19947;DHT22;10135;50.702;7.276;2023-05-10T07:44:21;17.90;69.60
19947;DHT22;10135;50.702;7.276;2023-05-10T07:46:22;17.90;69.60
19947;DHT22;10135;50.702;7.276;2023-05-10T07:48:22;17.90;69.60
19947;DHT22;10135;50.702;7.276;2023-05-10T07:50:23;17.90;69.60
19947;DHT22;10135;50.702;7.276;2023-05-10T07:52:24;17.90;69.60
19947;DHT22;10135;50.702;7.276;2023-05-10T07:54:24;17.90;69.60
19947;DHT22;10135;50.702;7.276;2023-05-10T07:56:27;17.90;69.60
19947;DHT22;10135;50.702;7.276;2023-05-10T07:58:32;17.90;69.60
19947;DHT22;10135;50.702;7.276;2023-05-10T08:00:32;17.90;69.60
19947;DHT22;10135;50.702;7.276;2023-05-10T08:02:35;18.00;69.70
19947;DHT22;10135;50.702;7.276;2023-05-10T08:04:36;17.90;69.60
19947;DHT22;10135;50.702;7.276;2023-05-10T08:06:36;18.00;69.70
19947;DHT22;10135;50.702;7.276;2023-05-10T08:08:37;18.00;69.70
19947;DHT22;10135;50.702;7.276;2023-05-10T08:10:38;18.00;69.70
19947;DHT22;10135;50.702;7.276;2023-05-10T08:12:38;18.00;69.70
19947;DHT22;10135;50.702;7.276;2023-05-10T08:14:39;18.00;69.70
19947;DHT22;10135;50.702;7.276;2023-05-10T08:16:41;18.10;69.80
19947;DHT22;10135;50.702;7.276;2023-05-10T08:25:29;18.20;69.70
19947;DHT22;10135;50.702;7.276;2023-05-10T08:27:29;18.10;69.50
19947;DHT22;10135;50.702;7.276;2023-05-10T08:29:30;18.10;69.50
19947;DHT22;10135;50.702;7.276;2023-05-10T08:31:31;18.10;69.50
19947;DHT22;10135;50.702;7.276;2023-05-10T08:33:31;18.10;69.50
19947;DHT22;10135;50.702;7.276;2023-05-10T08:35:32;18.10;69.60
19947;DHT22;10135;50.702;7.276;2023-05-10T08:37:34;18.20;69.70
19947;DHT22;10135;50.702;7.276;2023-05-10T08:39:35;18.20;69.70
19947;DHT22;10135;50.702;7.276;2023-05-10T08:41:39;18.20;69.70
19947;DHT22;10135;50.702;7.276;2023-05-10T08:43:40;18.20;69.70
19947;DHT22;10135;50.702;7.276;2023-05-10T08:45:46;18.20;69.70
19947;DHT22;10135;50.702;7.276;2023-05-10T08:47:50;18.30;69.80
19947;DHT22;10135;50.702;7.276;2023-05-10T08:49:53;18.30;69.70
19947;DHT22;10135;50.702;7.276;2023-05-10T08:51:55;18.30;69.70
19947;DHT22;10135;50.702;7.276;2023-05-10T08:54:02;18.30;69.70
19947;DHT22;10135;50.702;7.276;2023-05-10T08:56:06;18.40;69.70
19947;DHT22;10135;50.702;7.276;2023-05-10T08:58:09;18.40;69.60
19947;DHT22;10135;50.702;7.276;2023-05-10T09:00:10;18.40;69.60
19947;DHT22;10135;50.702;7.276;2023-05-10T09:02:13;18.40;69.50
19947;DHT22;10135;50.702;7.276;2023-05-10T09:04:15;18.40;69.40
19947;DHT22;10135;50.702;7.276;2023-05-10T09:06:17;18.40;69.30
19947;DHT22;10135;50.702;7.276;2023-05-10T09:08:18;18.40;69.30
19947;DHT22;10135;50.702;7.276;2023-05-10T09:10:21;18.40;69.30
19947;DHT22;10135;50.702;7.276;2023-05-10T09:12:22;18.40;69.30
19947;DHT22;10135;50.702;7.276;2023-05-10T09:14:24;18.30;69.20
19947;DHT22;10135;50.702;7.276;2023-05-10T09:16:26;18.30;69.20
19947;DHT22;10135;50.702;7.276;2023-05-10T09:18:26;18.30;69.10
19947;DHT22;10135;50.702;7.276;2023-05-10T09:20:27;18.20;69.10
19947;DHT22;10135;50.702;7.276;2023-05-10T09:22:28;18.30;69.30
19947;DHT22;10135;50.702;7.276;2023-05-10T09:24:30;18.20;69.20
19947;DHT22;10135;50.702;7.276;2023-05-10T09:26:31;18.20;69.20
19947;DHT22;10135;50.702;7.276;2023-05-10T09:28:33;18.20;69.30
19947;DHT22;10135;50.702;7.276;2023-05-10T09:30:35;18.20;69.30
19947;DHT22;10135;50.702;7.276;2023-05-10T09:32:47;18.10;69.10
19947;DHT22;10135;50.702;7.276;2023-05-10T09:34:49;18.10;69.10
19947;DHT22;10135;50.702;7.276;2023-05-10T09:36:58;18.00;68.90
19947;DHT22;10135;50.702;7.276;2023-05-10T09:39:08;18.00;68.90
19947;DHT22;10135;50.702;7.276;2023-05-10T09:41:19;17.90;68.90
19947;DHT22;10135;50.702;7.276;2023-05-10T09:43:20;17.80;69.20
19947;DHT22;10135;50.702;7.276;2023-05-10T09:45:23;17.80;69.20
19947;DHT22;10135;50.702;7.276;2023-05-10T09:47:25;17.70;69.20
19947;DHT22;10135;50.702;7.276;2023-05-10T09:49:26;17.70;69.40
19947;DHT22;10135;50.702;7.276;2023-05-10T09:51:27;17.70;69.40
19947;DHT22;10135;50.702;7.276;2023-05-10T09:53:28;17.70;69.60
19947;DHT22;10135;50.702;7.276;2023-05-10T09:57:47;17.70;69.90
19947;DHT22;10135;50.702;7.276;2023-05-10T09:59:50;17.70;69.80
19947;DHT22;10135;50.702;7.276;2023-05-10T10:01:51;17.70;69.80
19947;DHT22;10135;50.702;7.276;2023-05-10T10:03:53;17.70;69.80
19947;DHT22;10135;50.702;7.276;2023-05-10T10:05:54;17.80;69.90
19947;DHT22;10135;50.702;7.276;2023-05-10T10:07:59;17.80;70.00
19947;DHT22;10135;50.702;7.276;2023-05-10T10:10:02;17.80;70.20
19947;DHT22;10135;50.702;7.276;2023-05-10T10:12:05;17.90;70.10
19947;DHT22;10135;50.702;7.276;2023-05-10T10:14:06;18.00;70.20
19947;DHT22;10135;50.702;7.276;2023-05-10T10:16:08;18.00;70.20
19947;DHT22;10135;50.702;7.276;2023-05-10T10:18:13;18.10;70.30
19947;DHT22;10135;50.702;7.276;2023-05-10T10:20:16;18.10;70.40
19947;DHT22;10135;50.702;7.276;2023-05-10T10:22:17;18.20;70.30
19947;DHT22;10135;50.702;7.276;2023-05-10T10:24:18;18.20;70.20
19947;DHT22;10135;50.702;7.276;2023-05-10T10:26:20;18.30;70.20
19947;DHT22;10135;50.702;7.276;2023-05-10T10:31:28;18.50;70.20
19947;DHT22;10135;50.702;7.276;2023-05-10T10:34:25;18.50;70.30
19947;DHT22;10135;50.702;7.276;2023-05-10T10:36:04;18.60;70.30
19947;DHT22;10135;50.702;7.276;2023-05-10T10:38:08;18.80;70.40
19947;DHT22;10135;50.702;7.276;2023-05-10T10:40:30;18.80;70.50
19947;DHT22;10135;50.702;7.276;2023-05-10T10:42:44;19.00;70.40
19947;DHT22;10135;50.702;7.276;2023-05-10T10:44:46;19.10;70.00
19947;DHT22;10135;50.702;7.276;2023-05-10T10:47:10;19.20;70.00
19947;DHT22;10135;50.702;7.276;2023-05-10T10:49:14;19.20;69.60
19947;DHT22;10135;50.702;7.276;2023-05-10T10:51:17;19.30;69.30
19947;DHT22;10135;50.702;7.276;2023-05-10T10:53:18;19.30;69.30
19947;DHT22;10135;50.702;7.276;2023-05-10T10:55:20;19.30;69.10
19947;DHT22;10135;50.702;7.276;2023-05-10T10:57:26;19.30;69.20
19947;DHT22;10135;50.702;7.276;2023-05-10T10:59:28;19.30;69.10
19947;DHT22;10135;50.702;7.276;2023-05-10T11:01:33;19.20;68.90
19947;DHT22;10135;50.702;7.276;2023-05-10T11:03:35;19.20;68.90
19947;DHT22;10135;50.702;7.276;2023-05-10T11:05:49;19.20;69.50
19947;DHT22;10135;50.702;7.276;2023-05-10T11:09:55;19.10;68.70
19947;DHT22;10135;50.702;7.276;2023-05-10T11:11:56;19.10;68.70
19947;DHT22;10135;50.702;7.276;2023-05-10T11:16:23;19.00;68.70
19947;DHT22;10135;50.702;7.276;2023-05-10T11:18:29;19.00;68.70
19947;DHT22;10135;50.702;7.276;2023-05-10T11:20:39;18.90;68.70
19947;DHT22;10135;50.702;7.276;2023-05-10T11:22:53;18.90;68.70
19947;DHT22;10135;50.702;7.276;2023-05-10T11:25:12;18.90;68.70
19947;DHT22;10135;50.702;7.276;2023-05-10T11:27:18;18.90;68.80
19947;DHT22;10135;50.702;7.276;2023-05-10T11:29:51;18.80;69.00
19947;DHT22;10135;50.702;7.276;2023-05-10T11:31:52;18.80;69.00
19947;DHT22;10135;50.702;7.276;2023-05-10T11:34:25;18.80;69.00
19947;DHT22;10135;50.702;7.276;2023-05-10T11:39:38;18.80;68.90
19947;DHT22;10135;50.702;7.276;2023-05-10T11:41:48;18.80;69.00
19947;DHT22;10135;50.702;7.276;2023-05-10T11:43:51;18.80;69.00
19947;DHT22;10135;50.702;7.276;2023-05-10T11:45:53;18.80;68.90
19947;DHT22;10135;50.702;7.276;2023-05-10T11:47:56;18.80;69.00
19947;DHT22;10135;50.702;7.276;2023-05-10T11:49:57;18.80;68.90
19947;DHT22;10135;50.702;7.276;2023-05-10T11:52:08;18.80;68.80
19947;DHT22;10135;50.702;7.276;2023-05-10T11:54:11;18.80;68.80
19947;DHT22;10135;50.702;7.276;2023-05-10T11:56:11;18.80;68.80
19947;DHT22;10135;50.702;7.276;2023-05-10T11:58:12;18.80;68.90
19947;DHT22;10135;50.702;7.276;2023-05-10T12:00:13;18.90;69.00
19947;DHT22;10135;50.702;7.276;2023-05-10T12:02:14;18.90;68.90
19947;DHT22;10135;50.702;7.276;2023-05-10T12:04:15;18.90;68.90
19947;DHT22;10135;50.702;7.276;2023-05-10T12:06:18;18.90;68.90
19947;DHT22;10135;50.702;7.276;2023-05-10T12:08:21;18.90;68.90
19947;DHT22;10135;50.702;7.276;2023-05-10T12:10:26;19.00;69.00
19947;DHT22;10135;50.702;7.276;2023-05-10T12:12:27;19.00;68.90
19947;DHT22;10135;50.702;7.276;2023-05-10T12:14:35;19.10;69.00
19947;DHT22;10135;50.702;7.276;2023-05-10T12:16:36;19.10;68.90
19947;DHT22;10135;50.702;7.276;2023-05-10T12:18:39;19.10;68.90
19947;DHT22;10135;50.702;7.276;2023-05-10T12:20:41;19.20;68.90
19947;DHT22;10135;50.702;7.276;2023-05-10T12:22:47;19.20;68.90
19947;DHT22;10135;50.702;7.276;2023-05-10T12:24:50;19.20;68.70
19947;DHT22;10135;50.702;7.276;2023-05-10T12:26:51;19.20;68.50
19947;DHT22;10135;50.702;7.276;2023-05-10T12:28:53;19.20;68.40
19947;DHT22;10135;50.702;7.276;2023-05-10T12:30:54;19.30;68.40
19947;DHT22;10135;50.702;7.276;2023-05-10T12:33:01;19.20;68.30
19947;DHT22;10135;50.702;7.276;2023-05-10T12:35:03;19.20;67.90
19947;DHT22;10135;50.702;7.276;2023-05-10T12:37:04;19.20;68.00
19947;DHT22;10135;50.702;7.276;2023-05-10T12:39:05;19.30;68.10
19947;DHT22;10135;50.702;7.276;2023-05-10T12:41:07;19.30;68.00
19947;DHT22;10135;50.702;7.276;2023-05-10T12:43:09;19.30;67.80
19947;DHT22;10135;50.702;7.276;2023-05-10T12:45:10;19.20;67.80
19947;DHT22;10135;50.702;7.276;2023-05-10T12:47:11;19.20;67.80
19947;DHT22;10135;50.702;7.276;2023-05-10T12:49:12;19.20;67.80
19947;DHT22;10135;50.702;7.276;2023-05-10T12:51:13;19.10;67.70
19947;DHT22;10135;50.702;7.276;2023-05-10T12:53:16;19.20;67.60
19947;DHT22;10135;50.702;7.276;2023-05-10T12:55:17;19.10;67.60
19947;DHT22;10135;50.702;7.276;2023-05-10T12:57:17;19.10;67.70
19947;DHT22;10135;50.702;7.276;2023-05-10T12:59:18;19.00;67.60
19947;DHT22;10135;50.702;7.276;2023-05-10T13:01:19;19.00;67.60
19947;DHT22;10135;50.702;7.276;2023-05-10T13:03:20;19.00;67.60
19947;DHT22;10135;50.702;7.276;2023-05-10T13:05:20;19.00;67.80
19947;DHT22;10135;50.702;7.276;2023-05-10T13:07:21;18.90;67.70
19947;DHT22;10135;50.702;7.276;2023-05-10T13:09:22;18.90;67.80
19947;DHT22;10135;50.702;7.276;2023-05-10T13:11:23;18.90;68.00
19947;DHT22;10135;50.702;7.276;2023-05-10T13:13:23;18.90;68.00
19947;DHT22;10135;50.702;7.276;2023-05-10T13:15:25;18.90;68.10
19947;DHT22;10135;50.702;7.276;2023-05-10T13:17:26;18.90;68.10
19947;DHT22;10135;50.702;7.276;2023-05-10T13:19:27;18.90;68.30
19947;DHT22;10135;50.702;7.276;2023-05-10T13:21:28;18.90;68.40
19947;DHT22;10135;50.702;7.276;2023-05-10T13:23:28;19.00;68.40
19947;DHT22;10135;50.702;7.276;2023-05-10T13:25:29;19.10;68.40
19947;DHT22;10135;50.702;7.276;2023-05-10T13:27:30;19.10;69.20
19947;DHT22;10135;50.702;7.276;2023-05-10T13:29:30;19.10;68.40
19947;DHT22;10135;50.702;7.276;2023-05-10T13:31:32;19.20;68.40
19947;DHT22;10135;50.702;7.276;2023-05-10T13:33:33;19.30;68.40
19947;DHT22;10135;50.702;7.276;2023-05-10T13:35:34;19.30;68.30
19947;DHT22;10135;50.702;7.276;2023-05-10T13:37:35;19.40;68.30
19947;DHT22;10135;50.702;7.276;2023-05-10T13:39:37;19.40;68.20
19947;DHT22;10135;50.702;7.276;2023-05-10T13:41:38;19.50;68.20
19947;DHT22;10135;50.702;7.276;2023-05-10T13:43:38;19.50;68.10
19947;DHT22;10135;50.702;7.276;2023-05-10T13:45:39;19.60;68.10
19947;DHT22;10135;50.702;7.276;2023-05-10T13:47:40;19.60;67.80
19947;DHT22;10135;50.702;7.276;2023-05-10T13:49:41;19.60;67.60
19947;DHT22;10135;50.702;7.276;2023-05-10T13:51:43;19.60;67.60
19947;DHT22;10135;50.702;7.276;2023-05-10T13:53:43;19.60;67.50
19947;DHT22;10135;50.702;7.276;2023-05-10T13:55:44;19.60;67.50
19947;DHT22;10135;50.702;7.276;2023-05-10T13:57:44;19.60;67.30
19947;DHT22;10135;50.702;7.276;2023-05-10T13:59:45;19.60;67.30
19947;DHT22;10135;50.702;7.276;2023-05-10T14:01:46;19.50;67.30
19947;DHT22;10135;50.702;7.276;2023-05-10T14:03:46;19.50;67.20
19947;DHT22;10135;50.702;7.276;2023-05-10T14:05:48;19.40;67.10
19947;DHT22;10135;50.702;7.276;2023-05-10T14:07:50;19.40;67.20
19947;DHT22;10135;50.702;7.276;2023-05-10T14:09:51;19.40;67.10
19947;DHT22;10135;50.702;7.276;2023-05-10T14:11:51;19.30;67.10
19947;DHT22;10135;50.702;7.276;2023-05-10T14:13:52;19.30;67.10
19947;DHT22;10135;50.702;7.276;2023-05-10T14:15:53;19.30;67.20
19947;DHT22;10135;50.702;7.276;2023-05-10T14:17:54;19.30;67.30
19947;DHT22;10135;50.702;7.276;2023-05-10T14:19:55;19.30;67.30
19947;DHT22;10135;50.702;7.276;2023-05-10T14:21:56;19.20;67.30
19947;DHT22;10135;50.702;7.276;2023-05-10T14:23:56;19.20;67.20
19947;DHT22;10135;50.702;7.276;2023-05-10T14:25:57;19.20;67.20
19947;DHT22;10135;50.702;7.276;2023-05-10T14:27:58;19.20;67.30
19947;DHT22;10135;50.702;7.276;2023-05-10T14:29:58;19.20;67.20
19947;DHT22;10135;50.702;7.276;2023-05-10T14:31:59;19.10;67.20
19947;DHT22;10135;50.702;7.276;2023-05-10T14:34:00;19.10;67.20
19947;DHT22;10135;50.702;7.276;2023-05-10T14:36:01;19.10;67.20
19947;DHT22;10135;50.702;7.276;2023-05-10T14:38:03;19.10;67.40
19947;DHT22;10135;50.702;7.276;2023-05-10T14:40:05;19.00;67.30
19947;DHT22;10135;50.702;7.276;2023-05-10T14:42:06;19.00;67.30
19947;DHT22;10135;50.702;7.276;2023-05-10T14:44:07;19.00;67.40
19947;DHT22;10135;50.702;7.276;2023-05-10T14:46:08;18.90;67.30
19947;DHT22;10135;50.702;7.276;2023-05-10T14:48:09;18.90;67.40
19947;DHT22;10135;50.702;7.276;2023-05-10T14:50:12;18.90;67.40
19947;DHT22;10135;50.702;7.276;2023-05-10T14:52:13;18.80;67.30
19947;DHT22;10135;50.702;7.276;2023-05-10T14:54:14;18.80;67.30
19947;DHT22;10135;50.702;7.276;2023-05-10T14:56:15;18.70;67.30
19947;DHT22;10135;50.702;7.276;2023-05-10T14:58:16;18.70;67.50
19947;DHT22;10135;50.702;7.276;2023-05-10T15:00:17;18.70;67.50
19947;DHT22;10135;50.702;7.276;2023-05-10T15:02:19;18.60;67.40
19947;DHT22;10135;50.702;7.276;2023-05-10T15:04:20;18.60;67.50
19947;DHT22;10135;50.702;7.276;2023-05-10T15:06:30;18.60;67.50
19947;DHT22;10135;50.702;7.276;2023-05-10T15:08:32;18.60;67.50
19947;DHT22;10135;50.702;7.276;2023-05-10T15:10:32;18.60;67.70
19947;DHT22;10135;50.702;7.276;2023-05-10T15:12:33;18.60;67.70
19947;DHT22;10135;50.702;7.276;2023-05-10T15:14:34;18.60;67.80
19947;DHT22;10135;50.702;7.276;2023-05-10T15:16:36;18.60;67.90
19947;DHT22;10135;50.702;7.276;2023-05-10T15:18:37;18.60;68.10
19947;DHT22;10135;50.702;7.276;2023-05-10T15:20:38;18.60;68.20
19947;DHT22;10135;50.702;7.276;2023-05-10T15:22:38;18.70;68.20
19947;DHT22;10135;50.702;7.276;2023-05-10T15:24:39;18.70;68.20
19947;DHT22;10135;50.702;7.276;2023-05-10T15:26:40;18.80;68.20
19947;DHT22;10135;50.702;7.276;2023-05-10T15:28:41;18.80;68.10
19947;DHT22;10135;50.702;7.276;2023-05-10T15:30:41;18.80;68.00
19947;DHT22;10135;50.702;7.276;2023-05-10T15:32:42;18.90;68.00
19947;DHT22;10135;50.702;7.276;2023-05-10T15:34:43;18.90;67.90
19947;DHT22;10135;50.702;7.276;2023-05-10T15:36:44;19.00;67.60
19947;DHT22;10135;50.702;7.276;2023-05-10T15:38:45;19.00;67.60
19947;DHT22;10135;50.702;7.276;2023-05-10T15:40:46;19.00;67.60
19947;DHT22;10135;50.702;7.276;2023-05-10T15:42:46;19.10;67.50
19947;DHT22;10135;50.702;7.276;2023-05-10T15:44:47;19.10;67.60
19947;DHT22;10135;50.702;7.276;2023-05-10T15:46:50;19.20;67.60
19947;DHT22;10135;50.702;7.276;2023-05-10T15:48:52;19.20;67.60
19947;DHT22;10135;50.702;7.276;2023-05-10T15:50:52;19.20;67.40
19947;DHT22;10135;50.702;7.276;2023-05-10T15:52:53;19.30;67.60
19947;DHT22;10135;50.702;7.276;2023-05-10T15:54:54;19.30;67.40
19947;DHT22;10135;50.702;7.276;2023-05-10T15:56:54;19.30;67.40
19947;DHT22;10135;50.702;7.276;2023-05-10T15:58:55;19.40;67.30
19947;DHT22;10135;50.702;7.276;2023-05-10T16:00:56;19.40;67.40
19947;DHT22;10135;50.702;7.276;2023-05-10T16:02:57;19.50;67.50
19947;DHT22;10135;50.702;7.276;2023-05-10T16:04:57;19.50;67.40
19947;DHT22;10135;50.702;7.276;2023-05-10T16:06:58;19.60;67.50
19947;DHT22;10135;50.702;7.276;2023-05-10T16:08:59;19.60;67.50
19947;DHT22;10135;50.702;7.276;2023-05-10T16:10:59;19.70;67.30
19947;DHT22;10135;50.702;7.276;2023-05-10T16:13:00;19.70;67.20
19947;DHT22;10135;50.702;7.276;2023-05-10T16:15:03;19.70;67.10
19947;DHT22;10135;50.702;7.276;2023-05-10T16:17:04;19.80;67.20
19947;DHT22;10135;50.702;7.276;2023-05-10T16:19:05;19.80;67.20
19947;DHT22;10135;50.702;7.276;2023-05-10T16:21:06;19.80;67.00
19947;DHT22;10135;50.702;7.276;2023-05-10T16:23:07;19.90;66.90
19947;DHT22;10135;50.702;7.276;2023-05-10T16:25:08;19.90;66.70
19947;DHT22;10135;50.702;7.276;2023-05-10T16:27:09;19.90;66.70
19947;DHT22;10135;50.702;7.276;2023-05-10T16:29:11;19.90;66.50
19947;DHT22;10135;50.702;7.276;2023-05-10T16:31:12;19.90;66.50
19947;DHT22;10135;50.702;7.276;2023-05-10T16:33:13;19.90;66.40
19947;DHT22;10135;50.702;7.276;2023-05-10T16:35:14;19.90;66.30
19947;DHT22;10135;50.702;7.276;2023-05-10T16:37:15;19.80;66.20
19947;DHT22;10135;50.702;7.276;2023-05-10T16:39:16;19.80;66.20
19947;DHT22;10135;50.702;7.276;2023-05-10T16:41:16;19.70;66.00
19947;DHT22;10135;50.702;7.276;2023-05-10T16:43:17;19.70;66.00
19947;DHT22;10135;50.702;7.276;2023-05-10T16:45:18;19.70;66.00
19947;DHT22;10135;50.702;7.276;2023-05-10T16:47:19;19.60;66.00
19947;DHT22;10135;50.702;7.276;2023-05-10T16:49:20;19.60;66.10
19947;DHT22;10135;50.702;7.276;2023-05-10T16:51:20;19.60;66.00
19947;DHT22;10135;50.702;7.276;2023-05-10T16:53:21;19.50;66.00
19947;DHT22;10135;50.702;7.276;2023-05-10T16:55:22;19.50;66.00
19947;DHT22;10135;50.702;7.276;2023-05-10T16:57:22;19.40;66.00
19947;DHT22;10135;50.702;7.276;2023-05-10T16:59:24;19.40;66.00
19947;DHT22;10135;50.702;7.276;2023-05-10T17:01:24;19.30;66.00
19947;DHT22;10135;50.702;7.276;2023-05-10T17:03:25;19.30;66.10
19947;DHT22;10135;50.702;7.276;2023-05-10T17:05:26;19.20;66.10
19947;DHT22;10135;50.702;7.276;2023-05-10T17:07:27;19.20;66.10
19947;DHT22;10135;50.702;7.276;2023-05-10T17:09:28;19.20;66.30
19947;DHT22;10135;50.702;7.276;2023-05-10T17:11:29;19.20;66.30
19947;DHT22;10135;50.702;7.276;2023-05-10T17:13:31;19.20;66.50
19947;DHT22;10135;50.702;7.276;2023-05-10T17:15:31;19.20;66.50
19947;DHT22;10135;50.702;7.276;2023-05-10T17:17:32;19.20;66.50
19947;DHT22;10135;50.702;7.276;2023-05-10T17:19:33;19.20;66.60
19947;DHT22;10135;50.702;7.276;2023-05-10T17:21:33;19.20;66.50
19947;DHT22;10135;50.702;7.276;2023-05-10T17:23:34;19.10;66.50
19947;DHT22;10135;50.702;7.276;2023-05-10T17:25:35;19.10;66.50
19947;DHT22;10135;50.702;7.276;2023-05-10T17:27:36;19.10;66.50
19947;DHT22;10135;50.702;7.276;2023-05-10T17:29:36;19.10;66.50
19947;DHT22;10135;50.702;7.276;2023-05-10T17:31:37;19.10;66.70
19947;DHT22;10135;50.702;7.276;2023-05-10T17:33:37;19.10;66.60
19947;DHT22;10135;50.702;7.276;2023-05-10T17:35:38;19.10;66.70
19947;DHT22;10135;50.702;7.276;2023-05-10T17:37:39;19.10;66.70
19947;DHT22;10135;50.702;7.276;2023-05-10T17:39:40;19.10;66.70
19947;DHT22;10135;50.702;7.276;2023-05-10T17:41:41;19.10;66.60
19947;DHT22;10135;50.702;7.276;2023-05-10T17:43:42;19.10;66.50
19947;DHT22;10135;50.702;7.276;2023-05-10T17:45:42;19.00;66.50
19947;DHT22;10135;50.702;7.276;2023-05-10T17:47:46;19.00;66.40
19947;DHT22;10135;50.702;7.276;2023-05-10T17:49:47;19.00;66.50
19947;DHT22;10135;50.702;7.276;2023-05-10T17:51:47;19.00;66.50
19947;DHT22;10135;50.702;7.276;2023-05-10T17:53:48;18.90;66.50
19947;DHT22;10135;50.702;7.276;2023-05-10T17:55:50;18.90;66.60
19947;DHT22;10135;50.702;7.276;2023-05-10T17:57:51;18.90;66.70
19947;DHT22;10135;50.702;7.276;2023-05-10T17:59:52;18.80;66.70
19947;DHT22;10135;50.702;7.276;2023-05-10T18:01:52;18.90;66.70
19947;DHT22;10135;50.702;7.276;2023-05-10T18:03:53;18.90;66.70
19947;DHT22;10135;50.702;7.276;2023-05-10T18:05:54;18.80;66.60
19947;DHT22;10135;50.702;7.276;2023-05-10T18:07:54;18.80;66.70
19947;DHT22;10135;50.702;7.276;2023-05-10T18:09:56;18.80;66.80